Ace, Texas
Current Conditions -  °F | °C
As of 1:54 AM on Thursday 29 Jan 2015 (Local Time) from K6R3 Reporting Station
Moderate Fog Moderate Fog  
Wind Chill: 57°   Ceiling: NA
Heat Index: 57°   Visibility: 0.5mi
Dew Point: 57°   Wind: 3mph
Humidity: 100%   Direction: 160°SSE
Pressure: 30.18"   Gusts: NA
Location:  30.54°N, 94.82°W
Report Text: K6R3 290754Z AUTO 16003KT 1/2SM FG 14/14 A3018 RMK AO2
Loading
Personal Weather Stations






























Interactive Weather Map New forecast layout! Learn more

10-Day Weather Forecast

Advertisements
Track Severe Weather on mobile